Terminal Aerodrome Forecast
Issued by NWS

Home | Current Version | Previous Version | Text Only | Print | Product List | Glossary Off
Versions: 1 2 3 4 5 6 7 8 9 10 11 12 13 14 15 16

000
FTUS43 KIWX 241700
TAFSBN
TAF
KSBN 241720Z 2418/2518 12010KT P6SM SCT150 BKN250
     FM250200 12013G20KT P6SM BKN035 OVC070
     FM250700 14016KT 2SM RA BR OVC008 WS020/17050KT
     FM251200 20017KT 4SM BR VCSH BKN005 OVC015
     FM251400 25015KT P6SM BKN015=

USA.gov is the U.S. government's official web portal to all federal, state and local government web resources and services.